createdAt,value
2018-06-24T00:02:22.024Z,61.03
2018-06-24T00:04:55.453Z,60.83
2018-06-24T00:07:28.855Z,60.81
2018-06-24T00:10:02.278Z,60.98
2018-06-24T00:12:35.723Z,60.61
2018-06-24T00:15:09.161Z,60.79
2018-06-24T00:17:42.652Z,60.35
2018-06-24T00:20:16.075Z,60.63
2018-06-24T00:22:49.487Z,60.43
2018-06-24T00:25:22.899Z,60.57
2018-06-24T00:27:56.358Z,60.29
2018-06-24T00:30:29.793Z,60.38
2018-06-24T00:33:03.223Z,60.61
2018-06-24T00:35:36.723Z,60.24
2018-06-24T00:38:10.149Z,60.29
2018-06-24T00:40:43.604Z,60.58
2018-06-24T00:43:17.030Z,60.52
2018-06-24T00:45:50.460Z,60.46
2018-06-24T00:48:23.864Z,60.36
2018-06-24T00:50:57.319Z,60.51
2018-06-24T00:53:30.727Z,60.16
2018-06-24T00:56:04.153Z,60.04
2018-06-24T00:58:37.580Z,60.33
2018-06-24T01:01:11.050Z,60.76
2018-06-24T01:03:44.532Z,60.20
2018-06-24T01:06:18.009Z,60.43
2018-06-24T01:08:51.406Z,60.21
2018-06-24T01:11:24.794Z,60.96
2018-06-24T01:13:58.160Z,60.42
2018-06-24T01:16:31.587Z,60.30
2018-06-24T01:19:05.029Z,60.36
2018-06-24T01:21:38.493Z,60.34
2018-06-24T01:24:12.075Z,60.82
2018-06-24T01:26:45.486Z,60.60
2018-06-24T01:29:18.852Z,60.29
2018-06-24T01:31:52.306Z,60.49
2018-06-24T01:34:25.674Z,60.43
2018-06-24T01:36:59.123Z,60.61
2018-06-24T01:39:32.532Z,60.83
2018-06-24T01:42:05.945Z,60.34
2018-06-24T01:44:39.430Z,60.05
2018-06-24T01:47:12.833Z,60.21
2018-06-24T01:49:46.216Z,60.36
2018-06-24T01:52:19.669Z,60.47
2018-06-24T01:54:53.065Z,60.38
2018-06-24T01:57:26.562Z,60.40
2018-06-24T01:59:59.967Z,60.45
2018-06-24T02:02:33.424Z,60.43
2018-06-24T02:05:07.028Z,60.50
2018-06-24T02:07:40.453Z,60.06
2018-06-24T02:10:13.831Z,60.26
2018-06-24T02:12:47.235Z,60.49
2018-06-24T02:15:20.616Z,60.37
2018-06-24T02:17:54.026Z,60.44
2018-06-24T02:20:27.420Z,60.61
2018-06-24T02:23:00.811Z,60.77
2018-06-24T02:25:34.208Z,60.21
2018-06-24T02:28:07.615Z,60.53
2018-06-24T02:30:41.061Z,60.60
2018-06-24T02:33:14.462Z,61.01
2018-06-24T02:35:47.847Z,60.73
2018-06-24T02:38:21.258Z,60.61
2018-06-24T02:40:54.639Z,60.59
2018-06-24T02:43:28.089Z,60.85
2018-06-24T02:46:01.536Z,60.80
2018-06-24T02:48:34.979Z,60.72
2018-06-24T02:51:08.540Z,61.05
2018-06-24T02:53:42.026Z,61.34
2018-06-24T02:56:15.348Z,62.03
2018-06-24T02:58:48.755Z,61.78
2018-06-24T03:01:22.155Z,61.44
2018-06-24T03:03:55.559Z,61.78
2018-06-24T03:06:28.943Z,61.42
2018-06-24T03:09:02.383Z,61.81
2018-06-24T03:11:35.782Z,61.52
2018-06-24T03:14:09.222Z,61.36
2018-06-24T03:16:42.617Z,61.35
2018-06-24T03:19:16.056Z,61.56
2018-06-24T03:21:49.419Z,61.26
2018-06-24T03:24:22.814Z,61.23
2018-06-24T03:26:56.179Z,61.19
2018-06-24T03:29:29.565Z,60.92
2018-06-24T03:32:02.919Z,60.81
2018-06-24T03:34:36.356Z,61.49
2018-06-24T03:37:09.761Z,61.50
2018-06-24T03:39:43.130Z,61.74
2018-06-24T03:42:16.515Z,61.90
2018-06-24T03:44:49.941Z,61.95
2018-06-24T03:47:23.343Z,61.87
2018-06-24T03:49:56.756Z,61.72
2018-06-24T03:52:30.137Z,61.88
2018-06-24T03:55:03.705Z,62.53
2018-06-24T03:57:37.164Z,62.09
2018-06-24T04:00:10.556Z,62.27
2018-06-24T04:02:43.981Z,62.26
2018-06-24T04:05:17.385Z,62.29
2018-06-24T04:07:50.784Z,62.27
2018-06-24T04:10:24.159Z,62.78
2018-06-24T04:12:57.582Z,62.45
2018-06-24T04:15:30.984Z,62.81
2018-06-24T04:18:04.448Z,63.09
2018-06-24T04:20:37.837Z,62.95
2018-06-24T04:23:11.248Z,62.97
2018-06-24T04:25:44.662Z,62.98
2018-06-24T04:28:18.080Z,62.87
2018-06-24T04:30:51.474Z,62.95
2018-06-24T04:33:24.910Z,62.85
2018-06-24T04:35:58.329Z,62.68
2018-06-24T04:38:31.936Z,62.58
2018-06-24T04:41:05.349Z,62.47
2018-06-24T04:43:38.763Z,63.07
2018-06-24T04:46:12.203Z,63.42
2018-06-24T04:48:45.644Z,63.38
2018-06-24T04:51:19.046Z,63.69
2018-06-24T04:53:52.483Z,64.13
2018-06-24T04:56:26.055Z,64.30
2018-06-24T04:58:59.532Z,64.08
2018-06-24T05:01:32.936Z,64.29
2018-06-24T05:04:06.443Z,63.99
2018-06-24T05:06:39.870Z,63.93
2018-06-24T05:09:13.286Z,63.89
2018-06-24T05:11:46.692Z,64.02
2018-06-24T05:14:20.196Z,63.92
2018-06-24T05:16:53.617Z,64.06
2018-06-24T05:19:27.128Z,64.38
2018-06-24T05:22:00.509Z,64.29
2018-06-24T05:24:33.952Z,64.61
2018-06-24T05:27:07.678Z,64.47
2018-06-24T05:29:41.305Z,64.47
2018-06-24T05:32:15.329Z,64.41
2018-06-24T05:34:48.765Z,64.25
2018-06-24T05:37:22.181Z,64.06
2018-06-24T05:39:55.731Z,64.54
2018-06-24T05:42:29.154Z,64.55
2018-06-24T05:45:02.608Z,64.37
2018-06-24T05:47:36.443Z,64.40
2018-06-24T05:50:09.913Z,64.59
2018-06-24T05:52:43.306Z,65.28
2018-06-24T05:55:16.784Z,65.59
2018-06-24T05:57:50.164Z,65.70
2018-06-24T06:00:23.639Z,65.73
2018-06-24T06:02:57.099Z,65.39
2018-06-24T06:05:30.499Z,65.31
2018-06-24T06:08:03.943Z,65.01
2018-06-24T06:10:37.425Z,65.43
2018-06-24T06:13:10.852Z,65.05
2018-06-24T06:15:44.309Z,65.29
2018-06-24T06:18:17.740Z,65.24
2018-06-24T06:20:51.140Z,65.40
2018-06-24T06:23:24.503Z,65.62
2018-06-24T06:25:57.917Z,65.83
2018-06-24T06:28:31.407Z,65.99
2018-06-24T06:31:04.880Z,66.20
2018-06-24T06:33:38.336Z,66.13
2018-06-24T06:36:11.756Z,66.62
2018-06-24T06:38:45.140Z,66.37
2018-06-24T06:41:18.629Z,66.51
2018-06-24T06:43:52.014Z,66.39
2018-06-24T06:46:25.405Z,66.16
2018-06-24T06:48:58.818Z,66.24
2018-06-24T06:51:32.241Z,66.88
2018-06-24T06:54:05.682Z,66.34
2018-06-24T06:56:39.100Z,66.13
2018-06-24T06:59:12.516Z,65.89
2018-06-24T07:01:45.944Z,66.28
2018-06-24T07:04:19.351Z,66.68
2018-06-24T07:06:52.748Z,66.56
2018-06-24T07:09:26.126Z,66.48
2018-06-24T07:11:59.595Z,66.38
2018-06-24T07:14:32.984Z,66.24
2018-06-24T07:17:06.454Z,66.35
2018-06-24T07:19:39.891Z,66.25
2018-06-24T07:22:13.404Z,66.40
2018-06-24T07:24:46.749Z,66.43
2018-06-24T07:27:20.159Z,66.38
2018-06-24T07:29:53.576Z,66.01
2018-06-24T07:32:26.972Z,66.17
2018-06-24T07:35:00.390Z,65.90
2018-06-24T07:37:33.852Z,66.11
2018-06-24T07:40:07.295Z,66.50
2018-06-24T07:42:40.697Z,66.04
2018-06-24T07:45:14.088Z,66.40
2018-06-24T07:47:47.501Z,66.19
2018-06-24T07:50:20.969Z,66.18
2018-06-24T07:52:54.311Z,66.31
2018-06-24T07:55:27.727Z,66.30
2018-06-24T07:58:01.121Z,66.06
2018-06-24T08:00:34.541Z,65.95
2018-06-24T08:03:07.955Z,66.08
2018-06-24T08:05:41.375Z,66.10
2018-06-24T08:08:14.789Z,66.36
2018-06-24T08:10:48.198Z,66.23
2018-06-24T08:13:21.618Z,66.12
2018-06-24T08:15:55.047Z,66.76
2018-06-24T08:18:28.480Z,67.08
2018-06-24T08:21:01.925Z,66.92
2018-06-24T08:23:35.372Z,66.54
2018-06-24T08:26:08.774Z,66.63
2018-06-24T08:28:42.167Z,66.24
2018-06-24T08:31:15.605Z,66.54
2018-06-24T08:33:48.997Z,66.59
2018-06-24T08:36:22.400Z,66.00
2018-06-24T08:38:55.823Z,66.46
2018-06-24T08:41:29.233Z,66.48
2018-06-24T08:44:02.631Z,66.38
2018-06-24T08:46:36.216Z,65.97
2018-06-24T08:49:09.657Z,66.05
2018-06-24T08:51:43.103Z,66.02
2018-06-24T08:54:16.568Z,65.44
2018-06-24T08:56:50.072Z,65.99
2018-06-24T08:59:23.481Z,65.57
2018-06-24T09:01:56.915Z,64.98
2018-06-24T09:04:30.295Z,65.37
2018-06-24T09:07:03.778Z,66.18
2018-06-24T09:09:37.226Z,65.13
2018-06-24T09:12:10.639Z,65.33
2018-06-24T09:14:44.088Z,64.70
2018-06-24T09:17:17.526Z,64.10
2018-06-24T09:19:51.022Z,63.76
2018-06-24T09:22:24.446Z,63.93
2018-06-24T09:24:57.892Z,63.17
2018-06-24T09:27:31.295Z,62.67
2018-06-24T09:30:04.839Z,62.65
2018-06-24T09:32:38.271Z,63.00
2018-06-24T09:35:11.677Z,63.54
2018-06-24T09:37:45.094Z,63.91
2018-06-24T09:40:18.498Z,63.59
2018-06-24T09:42:51.914Z,64.57
2018-06-24T09:45:25.311Z,64.56
2018-06-24T09:47:58.737Z,64.26
2018-06-24T09:50:32.112Z,63.27
2018-06-24T09:53:05.762Z,63.01
2018-06-24T09:55:39.202Z,62.85
2018-06-24T09:58:12.605Z,62.42
2018-06-24T10:00:46.036Z,60.86
2018-06-24T10:03:19.471Z,61.45
2018-06-24T10:05:52.865Z,60.94
2018-06-24T10:08:26.264Z,60.68
2018-06-24T10:10:59.662Z,61.25
2018-06-24T10:13:33.056Z,60.87
2018-06-24T10:16:06.510Z,60.69
2018-06-24T10:18:39.953Z,60.25
2018-06-24T10:21:13.381Z,60.49
2018-06-24T10:23:46.800Z,60.90
2018-06-24T10:26:20.208Z,61.24
2018-06-24T10:28:53.660Z,60.27
2018-06-24T10:31:27.056Z,60.80
2018-06-24T10:34:00.513Z,61.69
2018-06-24T10:36:33.912Z,61.79
2018-06-24T10:39:09.464Z,62.26
2018-06-24T10:41:42.864Z,62.40
2018-06-24T10:44:16.262Z,61.95
2018-06-24T10:46:49.675Z,62.19
2018-06-24T10:49:23.108Z,61.90
2018-06-24T10:51:56.494Z,61.96
2018-06-24T10:54:29.888Z,61.66
2018-06-24T10:57:03.288Z,61.97
2018-06-24T10:59:36.741Z,61.55
2018-06-24T11:02:10.168Z,61.33
2018-06-24T11:04:43.591Z,61.03
2018-06-24T11:07:17.045Z,61.10
2018-06-24T11:09:50.469Z,61.95
2018-06-24T11:12:23.930Z,61.84
2018-06-24T11:14:57.348Z,62.10
2018-06-24T11:17:30.770Z,62.11
2018-06-24T11:20:04.224Z,62.48
2018-06-24T11:22:37.696Z,62.80
2018-06-24T11:25:11.091Z,62.75
2018-06-24T11:27:44.507Z,63.63
2018-06-24T11:30:17.904Z,64.01
2018-06-24T11:32:51.317Z,64.37
2018-06-24T11:35:24.712Z,64.06
2018-06-24T11:37:58.088Z,63.70
2018-06-24T11:40:31.465Z,64.44
2018-06-24T11:43:04.889Z,63.60
2018-06-24T11:45:38.343Z,63.98
2018-06-24T11:48:11.794Z,63.20
2018-06-24T11:50:45.184Z,63.42
2018-06-24T11:53:18.678Z,63.25
2018-06-24T11:55:52.076Z,62.90
2018-06-24T11:58:25.506Z,63.60
2018-06-24T12:00:58.872Z,63.42
2018-06-24T12:03:32.279Z,63.70
2018-06-24T12:06:05.686Z,63.80
2018-06-24T12:08:39.146Z,63.26
2018-06-24T12:11:12.627Z,63.39
2018-06-24T12:13:46.059Z,62.86
2018-06-24T12:16:19.445Z,63.02
2018-06-24T12:18:52.868Z,63.61
2018-06-24T12:21:26.257Z,63.66
2018-06-24T12:23:59.676Z,63.52
2018-06-24T12:26:33.098Z,63.46
2018-06-24T12:29:06.571Z,63.10
2018-06-24T12:31:39.945Z,63.07
2018-06-24T12:34:13.403Z,62.86
2018-06-24T12:36:46.807Z,62.83
2018-06-24T12:39:20.300Z,62.86
2018-06-24T12:41:53.680Z,62.91
2018-06-24T12:44:27.135Z,63.05
2018-06-24T12:47:00.540Z,63.18
2018-06-24T12:49:33.950Z,62.80
2018-06-24T12:52:07.453Z,62.35
2018-06-24T12:54:40.839Z,62.46
2018-06-24T12:57:14.209Z,62.03
2018-06-24T12:59:47.869Z,62.56
2018-06-24T13:02:21.016Z,62.42
2018-06-24T13:04:54.407Z,62.02
2018-06-24T13:07:27.777Z,62.33
2018-06-24T13:10:01.246Z,62.90
2018-06-24T13:12:34.624Z,62.56
2018-06-24T13:15:08.297Z,62.41
2018-06-24T13:17:41.696Z,62.41
2018-06-24T13:20:15.224Z,62.73
2018-06-24T13:22:48.598Z,62.38
2018-06-24T13:25:21.975Z,62.38
2018-06-24T13:27:55.347Z,62.82
2018-06-24T13:30:28.732Z,62.04
2018-06-24T13:33:02.095Z,61.44
2018-06-24T13:35:35.740Z,62.10
2018-06-24T13:38:09.136Z,61.62
2018-06-24T13:40:42.589Z,61.14
2018-06-24T13:43:16.041Z,60.70
2018-06-24T13:45:49.449Z,61.22
2018-06-24T13:48:22.850Z,60.07
2018-06-24T13:50:56.245Z,60.39
2018-06-24T13:53:29.613Z,60.82
2018-06-24T13:56:03.066Z,60.64
2018-06-24T13:58:36.494Z,60.48
2018-06-24T14:01:09.921Z,60.70
2018-06-24T14:03:43.288Z,60.53
2018-06-24T14:06:16.676Z,61.37
2018-06-24T14:08:50.093Z,61.53
2018-06-24T14:11:23.529Z,60.31
2018-06-24T14:13:56.989Z,61.38
2018-06-24T14:16:30.359Z,61.07
2018-06-24T14:19:03.845Z,61.05
2018-06-24T14:21:37.306Z,61.31
2018-06-24T14:24:10.676Z,61.41
2018-06-24T14:26:44.063Z,61.53
2018-06-24T14:29:17.449Z,61.99
2018-06-24T14:31:50.864Z,61.68
2018-06-24T14:34:24.240Z,62.35
2018-06-24T14:36:57.633Z,61.93
2018-06-24T14:39:31.029Z,61.37
2018-06-24T14:42:04.436Z,61.29
2018-06-24T14:44:37.861Z,61.21
2018-06-24T14:47:11.268Z,61.53
2018-06-24T14:49:45.070Z,61.28
2018-06-24T14:52:18.468Z,60.81
2018-06-24T14:54:51.859Z,60.86
2018-06-24T14:57:25.284Z,60.75
2018-06-24T14:59:58.729Z,60.30
2018-06-24T15:02:35.057Z,61.10
2018-06-24T15:05:08.684Z,60.92
2018-06-24T15:07:42.766Z,61.41
2018-06-24T15:10:16.175Z,61.39
2018-06-24T15:12:49.550Z,62.15
2018-06-24T15:15:22.932Z,61.93
2018-06-24T15:17:56.312Z,62.25
2018-06-24T15:20:29.718Z,62.08
2018-06-24T15:23:03.096Z,62.36
2018-06-24T15:25:36.548Z,62.04
2018-06-24T15:28:09.999Z,61.94
2018-06-24T15:30:43.533Z,62.29
2018-06-24T15:33:16.929Z,62.58
2018-06-24T15:35:50.389Z,62.99
2018-06-24T15:38:23.769Z,62.53
2018-06-24T15:40:57.182Z,62.58
2018-06-24T15:43:30.576Z,62.52
2018-06-24T15:46:04.031Z,62.60
2018-06-24T15:48:37.431Z,62.52
2018-06-24T15:51:10.839Z,62.38
2018-06-24T15:53:44.218Z,62.24
2018-06-24T15:56:17.608Z,61.86
2018-06-24T15:58:51.001Z,62.53
2018-06-24T16:01:24.389Z,62.23
2018-06-24T16:03:57.775Z,62.15
2018-06-24T16:06:31.197Z,61.55
2018-06-24T16:09:08.187Z,62.10
2018-06-24T16:11:41.596Z,62.10
2018-06-24T16:14:14.999Z,61.55
2018-06-24T16:16:48.411Z,61.72
2018-06-24T16:19:21.800Z,61.93
2018-06-24T16:21:55.208Z,62.26
2018-06-24T16:24:28.560Z,61.66
2018-06-24T16:27:01.998Z,62.33
2018-06-24T16:29:35.384Z,62.44
2018-06-24T16:32:08.804Z,63.55
2018-06-24T16:34:42.169Z,63.30
2018-06-24T16:37:15.656Z,63.21
2018-06-24T16:39:49.080Z,63.44
2018-06-24T16:42:22.480Z,63.24
2018-06-24T16:44:55.856Z,63.53
2018-06-24T16:47:29.227Z,63.22
2018-06-24T16:50:03.511Z,63.34
2018-06-24T16:52:36.924Z,63.59
2018-06-24T16:55:10.271Z,63.50
2018-06-24T16:57:43.724Z,63.69
2018-06-24T17:00:17.153Z,63.39
2018-06-24T17:02:51.007Z,64.07
2018-06-24T17:05:25.015Z,63.92
2018-06-24T17:07:59.083Z,63.69
2018-06-24T17:10:32.519Z,64.03
2018-06-24T17:13:05.947Z,63.84
2018-06-24T17:15:39.334Z,63.97
2018-06-24T17:18:12.893Z,63.71
2018-06-24T17:20:46.294Z,63.65
2018-06-24T17:23:19.703Z,63.80
2018-06-24T17:25:53.132Z,64.01
2018-06-24T17:28:26.580Z,64.00
2018-06-24T17:30:59.953Z,63.84
2018-06-24T17:33:33.837Z,64.01
2018-06-24T17:36:07.594Z,64.13
2018-06-24T17:38:41.396Z,64.03
2018-06-24T17:41:15.157Z,63.73
2018-06-24T17:43:48.638Z,64.49
2018-06-24T17:46:22.027Z,64.32
2018-06-24T17:48:55.461Z,64.16
2018-06-24T17:51:28.856Z,64.19
2018-06-24T17:54:02.249Z,63.70
2018-06-24T17:56:35.644Z,64.15
2018-06-24T17:59:09.062Z,64.41
2018-06-24T18:01:42.440Z,64.09
2018-06-24T18:04:16.505Z,63.86
2018-06-24T18:06:49.980Z,64.23
2018-06-24T18:09:23.594Z,64.30
2018-06-24T18:11:57.031Z,64.13
2018-06-24T18:14:30.443Z,63.88
2018-06-24T18:17:03.975Z,64.09
2018-06-24T18:19:37.511Z,64.01
2018-06-24T18:22:11.189Z,63.81
2018-06-24T18:24:44.631Z,63.79
2018-06-24T18:27:18.023Z,63.64
2018-06-24T18:29:51.463Z,63.88
2018-06-24T18:32:24.857Z,64.22
2018-06-24T18:34:58.318Z,63.68
2018-06-24T18:37:31.730Z,63.60
2018-06-24T18:40:05.316Z,63.54
2018-06-24T18:42:38.752Z,63.52
2018-06-24T18:45:12.177Z,63.80
2018-06-24T18:47:45.576Z,63.70
2018-06-24T18:50:19.033Z,63.74
2018-06-24T18:52:52.595Z,63.97
2018-06-24T18:55:26.084Z,64.10
2018-06-24T18:57:59.659Z,64.26
2018-06-24T19:00:33.125Z,63.72
2018-06-24T19:03:06.701Z,64.42
2018-06-24T19:05:39.969Z,64.19
2018-06-24T19:08:13.369Z,63.89
2018-06-24T19:10:46.773Z,64.32
2018-06-24T19:13:20.169Z,64.39
2018-06-24T19:15:53.594Z,64.47
2018-06-24T19:18:27.022Z,64.51
2018-06-24T19:21:00.441Z,64.41
2018-06-24T19:23:33.833Z,64.40
2018-06-24T19:26:07.276Z,64.38
2018-06-24T19:28:40.669Z,64.32
2018-06-24T19:31:14.119Z,64.07
2018-06-24T19:33:47.518Z,64.49
2018-06-24T19:36:20.956Z,64.46
2018-06-24T19:38:54.383Z,64.52
2018-06-24T19:41:27.807Z,64.47
2018-06-24T19:44:01.231Z,64.58
2018-06-24T19:46:34.900Z,64.52
2018-06-24T19:49:08.289Z,64.33
2018-06-24T19:51:41.718Z,64.39
2018-06-24T19:54:15.112Z,64.04
2018-06-24T19:56:48.551Z,64.31
2018-06-24T19:59:21.948Z,64.37
2018-06-24T20:01:55.365Z,64.44
2018-06-24T20:04:28.766Z,64.67
2018-06-24T20:07:02.202Z,64.66
2018-06-24T20:09:36.007Z,64.35
2018-06-24T20:12:09.441Z,64.26
2018-06-24T20:14:42.839Z,64.35
2018-06-24T20:17:16.253Z,64.25
2018-06-24T20:19:49.691Z,64.51
2018-06-24T20:22:23.130Z,64.48
2018-06-24T20:24:56.559Z,64.26
2018-06-24T20:27:29.977Z,64.23
2018-06-24T20:30:03.460Z,64.54
2018-06-24T20:32:37.120Z,64.37
2018-06-24T20:35:10.488Z,64.22
2018-06-24T20:37:44.080Z,64.41
2018-06-24T20:40:17.499Z,64.44
2018-06-24T20:42:50.935Z,63.96
2018-06-24T20:45:24.319Z,64.16
2018-06-24T20:47:57.727Z,64.24
2018-06-24T20:50:31.165Z,64.32
2018-06-24T20:53:04.705Z,64.14
2018-06-24T20:55:38.136Z,64.46
2018-06-24T20:58:11.585Z,64.24
2018-06-24T21:00:44.973Z,64.31
2018-06-24T21:03:18.400Z,64.59
2018-06-24T21:05:52.967Z,64.67
2018-06-24T21:08:26.623Z,64.50
2018-06-24T21:11:00.021Z,64.45
2018-06-24T21:13:33.468Z,64.42
2018-06-24T21:16:07.100Z,64.52
2018-06-24T21:18:40.536Z,64.58
2018-06-24T21:21:13.994Z,64.60
2018-06-24T21:23:47.435Z,64.84
2018-06-24T21:26:20.904Z,64.47
2018-06-24T21:28:54.334Z,64.74
2018-06-24T21:31:27.711Z,64.74
2018-06-24T21:34:01.152Z,64.77
2018-06-24T21:36:34.555Z,64.22
2018-06-24T21:39:09.421Z,64.56
2018-06-24T21:41:42.869Z,64.59
2018-06-24T21:44:16.312Z,64.86
2018-06-24T21:46:50.320Z,64.66
2018-06-24T21:49:23.930Z,64.24
2018-06-24T21:51:57.268Z,64.52
2018-06-24T21:54:30.685Z,64.37
2018-06-24T21:57:04.131Z,64.41
2018-06-24T21:59:37.553Z,64.25
2018-06-24T22:02:10.941Z,64.61
2018-06-24T22:04:44.352Z,64.73
2018-06-24T22:07:17.750Z,64.67
2018-06-24T22:09:51.199Z,64.48
2018-06-24T22:12:24.611Z,64.49
2018-06-24T22:14:58.018Z,64.40
2018-06-24T22:17:31.432Z,64.88
2018-06-24T22:20:05.001Z,64.70
2018-06-24T22:22:38.403Z,64.43
2018-06-24T22:25:11.802Z,64.75
2018-06-24T22:27:45.200Z,64.77
2018-06-24T22:30:18.604Z,64.21
2018-06-24T22:32:52.242Z,64.27
2018-06-24T22:35:25.692Z,64.21
2018-06-24T22:37:59.103Z,64.25
2018-06-24T22:40:32.486Z,64.19
2018-06-24T22:43:06.279Z,64.50
2018-06-24T22:45:39.678Z,64.15
2018-06-24T22:48:13.083Z,64.41
2018-06-24T22:50:46.464Z,64.75
2018-06-24T22:53:20.296Z,64.51
2018-06-24T22:55:53.715Z,64.57
2018-06-24T22:58:27.124Z,64.68
2018-06-24T23:01:00.619Z,64.84
2018-06-24T23:03:34.047Z,64.66
2018-06-24T23:06:07.534Z,64.76
2018-06-24T23:08:40.944Z,64.71
2018-06-24T23:11:14.412Z,64.93
2018-06-24T23:13:47.843Z,64.74
2018-06-24T23:16:21.324Z,64.81
2018-06-24T23:18:54.750Z,64.93
2018-06-24T23:21:28.274Z,65.22
2018-06-24T23:24:01.747Z,65.09
2018-06-24T23:26:35.180Z,65.51
2018-06-24T23:29:08.659Z,65.47
2018-06-24T23:31:42.097Z,65.21
2018-06-24T23:34:15.509Z,65.43
2018-06-24T23:36:48.982Z,65.08
2018-06-24T23:39:22.396Z,65.34
2018-06-24T23:41:55.829Z,65.43
2018-06-24T23:44:29.261Z,65.19
2018-06-24T23:47:03.556Z,65.35
2018-06-24T23:49:36.990Z,65.28
2018-06-24T23:52:10.440Z,65.37
2018-06-24T23:54:43.852Z,65.43
2018-06-24T23:57:17.279Z,65.64
2018-06-24T23:59:50.687Z,65.47
